Time;durP1;ratioP1;P1;durP2;ratioP2;P2;SDS_P1;SDS_P2;PMS_P1;PMS_P2;Temp;Humidity;BMP_temperature;BMP_pressure;BME280_temperature;BME280_humidity;BME280_pressure;Samples;Min_cycle;Max_cycle;Signal;HPM_P1;HPM_P2
2022/11/25 00:01:30;;;;;;;22.80;13.18;;;;;;;2.60;90.58;100865.38;1750245;78;25773;-62
2022/11/25 00:03:58;;;;;;;25.17;13.72;;;;;;;2.58;90.64;100861.48;1766605;78;25732;-61
2022/11/25 00:06:34;;;;;;;30.15;13.48;;;;;;;2.52;90.68;100868.92;1778123;78;27458;-61
2022/11/25 00:09:11;;;;;;;25.27;12.65;;;;;;;2.48;90.74;100873.05;1777639;79;25769;-62
2022/11/25 00:11:41;;;;;;;24.77;13.68;;;;;;;2.42;90.81;100868.08;1771017;79;25688;-62
2022/11/25 00:14:12;;;;;;;24.50;13.30;;;;;;;2.44;90.84;100871.97;1762687;78;26580;-62
2022/11/25 00:16:39;;;;;;;24.32;12.58;;;;;;;2.48;90.98;100882.34;1756681;79;25670;-62
2022/11/25 00:19:06;;;;;;;24.85;12.93;;;;;;;2.44;90.88;100886.12;1735592;80;27638;-62
2022/11/25 00:21:33;;;;;;;20.52;12.18;;;;;;;2.40;90.93;100884.55;1778089;80;25655;-62
2022/11/25 00:24:05;;;;;;;24.10;12.07;;;;;;;2.34;91.08;100887.05;1778860;79;25716;-62
2022/11/25 00:26:35;;;;;;;20.85;12.58;;;;;;;2.34;91.22;100887.54;1778016;79;25842;-61
2022/11/25 00:29:07;;;;;;;25.02;12.33;;;;;;;2.31;91.26;100885.03;1777639;79;25733;-61
2022/11/25 00:31:38;;;;;;;27.00;13.78;;;;;;;2.29;91.32;100890.44;1773579;79;27136;-62
2022/11/25 00:34:06;;;;;;;23.32;12.13;;;;;;;2.26;91.93;100889.25;1745519;81;25999;-61
2022/11/25 00:36:36;;;;;;;27.85;13.13;;;;;;;2.29;91.68;100892.21;1756467;79;26670;-62
2022/11/25 00:39:12;;;;;;;22.48;12.18;;;;;;;2.32;91.79;100892.94;1773033;79;25789;-62
2022/11/25 00:44:35;;;;;;;20.12;11.57;;;;;;;2.34;91.79;100899.48;1791913;79;28496;-61
2022/11/25 00:47:09;;;;;;;27.13;13.20;;;;;;;2.41;91.83;100898.70;1761433;79;25700;-62
2022/11/25 00:49:38;;;;;;;26.85;13.62;;;;;;;2.42;91.60;100900.42;1749746;80;25732;-62
2022/11/25 00:52:06;;;;;;;28.77;13.22;;;;;;;2.44;91.59;100894.54;1740980;80;25892;-63
2022/11/25 00:54:34;;;;;;;31.02;15.10;;;;;;;2.50;91.68;100891.09;1751417;80;25811;-62
2022/11/25 00:57:01;;;;;;;25.77;13.38;;;;;;;2.53;91.53;100896.71;1772629;80;27487;-60
2022/11/25 00:59:29;;;;;;;27.85;13.25;;;;;;;2.53;91.33;100898.03;1777681;79;25899;-62
2022/11/25 01:01:58;;;;;;;31.10;13.62;;;;;;;2.51;91.00;100905.22;1794975;79;25690;-61
2022/11/25 01:04:27;;;;;;;28.85;13.78;;;;;;;2.56;91.14;100914.27;1760494;79;25793;-61
2022/11/25 01:06:55;;;;;;;25.68;12.82;;;;;;;2.58;90.93;100913.28;1738945;82;25824;-62
2022/11/25 01:09:22;;;;;;;26.52;13.78;;;;;;;2.63;91.09;100907.23;1724595;81;28570;-62
2022/11/25 01:11:51;;;;;;;25.52;13.22;;;;;;;2.69;91.02;100910.53;1738387;81;25692;-63
2022/11/25 01:14:19;;;;;;;23.50;13.22;;;;;;;2.70;90.56;100901.14;1758525;81;26356;-62
2022/11/25 01:16:47;;;;;;;26.65;14.38;;;;;;;2.64;90.24;100900.98;1764773;80;25963;-62
2022/11/25 01:19:16;;;;;;;31.37;14.40;;;;;;;2.65;90.26;100902.70;1738909;80;26918;-62
2022/11/25 01:21:44;;;;;;;26.25;13.50;;;;;;;2.69;90.40;100902.55;1759650;81;27361;-62
2022/11/25 01:24:14;;;;;;;30.68;14.35;;;;;;;2.76;90.54;100906.11;1743524;80;25670;-62
2022/11/25 01:26:43;;;;;;;23.95;13.25;;;;;;;2.76;90.04;100910.09;1738691;81;25755;-62
2022/11/25 01:29:17;;;;;;;25.72;12.82;;;;;;;2.70;89.44;100909.10;1739263;81;25660;-62
2022/11/25 01:31:45;;;;;;;21.50;12.35;;;;;;;2.66;89.42;100914.18;1740496;81;26117;-62
2022/11/25 01:34:19;;;;;;;24.98;13.32;;;;;;;2.61;89.63;100895.83;1738288;81;28260;-62
2022/11/25 01:36:46;;;;;;;26.45;13.25;;;;;;;2.68;89.56;100909.65;1752440;81;25685;-62
2022/11/25 01:39:21;;;;;;;23.65;13.00;;;;;;;2.73;89.64;100906.30;1749015;81;25728;-62
2022/11/25 01:41:48;;;;;;;26.15;13.30;;;;;;;2.77;89.63;100898.53;1738372;81;25813;-62
2022/11/25 01:44:25;;;;;;;23.95;12.80;;;;;;;2.82;89.68;100908.91;1738563;81;25888;-62
2022/11/25 01:47:06;;;;;;;22.32;11.57;;;;;;;2.87;89.56;100904.67;1751980;81;27300;-62
2022/11/25 01:49:44;;;;;;;22.80;11.57;;;;;;;2.90;89.21;100911.16;1746227;81;25801;-62
2022/11/25 01:52:27;;;;;;;22.35;12.63;;;;;;;2.94;89.10;100908.26;1765078;79;25694;-62
2022/11/25 01:55:19;;;;;;;24.27;12.75;;;;;;;2.93;88.59;100908.31;1790529;79;26211;-61
2022/11/25 01:57:57;;;;;;;23.80;12.73;;;;;;;2.89;88.24;100906.30;1747765;79;25813;-62
2022/11/25 02:00:24;;;;;;;25.35;13.38;;;;;;;2.86;88.58;100911.80;1794206;79;28197;-63
2022/11/25 02:02:55;;;;;;;21.60;12.20;;;;;;;2.89;88.63;100920.91;1771811;79;25801;-62
2022/11/25 02:05:36;;;;;;;25.35;12.75;;;;;;;2.93;88.99;100918.50;1789695;79;25524;-61
2022/11/25 02:08:05;;;;;;;25.32;13.53;;;;;;;2.92;88.58;100914.12;1755941;81;26264;-61
2022/11/25 02:10:34;;;;;;;27.90;12.90;;;;;;;2.85;87.96;100916.73;1741369;81;25473;-62
2022/11/25 02:13:02;;;;;;;21.55;12.73;;;;;;;2.82;88.12;100920.87;1764787;79;28150;-61
2022/11/25 02:15:34;;;;;;;21.93;12.85;;;;;;;2.80;87.95;100929.38;1796941;79;25750;-61
2022/11/25 02:18:04;;;;;;;20.68;11.95;;;;;;;2.65;87.59;100929.27;1759468;79;25687;-62
2022/11/25 02:20:30;;;;;;;21.60;12.60;;;;;;;2.53;87.78;100929.06;1784036;79;25764;-62
2022/11/25 02:23:44;;;;;;;21.65;12.88;;;;;;;2.46;88.12;100932.50;1787308;79;25713;-62
2022/11/25 02:26:13;;;;;;;22.02;12.33;;;;;;;2.39;88.37;100933.28;1792272;79;45691;-62
2022/11/25 02:28:41;;;;;;;18.87;11.18;;;;;;;2.26;88.71;100946.33;1794011;79;25837;-62
2022/11/25 02:31:08;;;;;;;20.95;12.07;;;;;;;2.19;89.10;100948.45;1794767;79;25733;-61
2022/11/25 02:33:36;;;;;;;19.98;10.30;;;;;;;2.10;89.56;100948.92;1796161;79;25799;-62
2022/11/25 02:36:11;;;;;;;19.85;11.90;;;;;;;2.06;89.96;100947.83;1779777;79;25686;-63
2022/11/25 02:38:43;;;;;;;19.32;11.75;;;;;;;2.01;90.22;100954.20;1780643;79;27639;-61
2022/11/25 02:41:15;;;;;;;19.27;10.60;;;;;;;1.98;90.31;100948.20;1795492;79;25489;-62
2022/11/25 02:43:44;;;;;;;;;;;;;;;1.96;90.26;100948.73;1797927;79;25801;-62
2022/11/25 02:46:18;;;;;;;19.85;10.72;;;;;;;1.94;90.51;100952.80;1797223;79;26968;-61
2022/11/25 02:48:45;;;;;;;;;;;;;;;1.91;90.82;100952.94;1795899;79;26219;-62
2022/11/25 02:51:16;;;;;;;16.95;11.08;;;;;;;1.88;91.01;100949.14;1796053;79;27483;-63
2022/11/25 02:53:44;;;;;;;16.73;10.72;;;;;;;1.87;90.96;100954.89;1770353;79;26463;-62
2022/11/25 02:56:14;;;;;;;16.12;9.58;;;;;;;1.91;90.92;100957.41;1775828;80;25737;-62
2022/11/25 02:58:41;;;;;;;15.78;10.10;;;;;;;1.93;90.87;100957.72;1755220;80;25858;-62
2022/11/25 03:01:10;;;;;;;12.50;8.83;;;;;;;1.99;90.82;100961.86;1767796;79;25622;-61
2022/11/25 03:03:37;;;;;;;17.12;10.08;;;;;;;2.02;90.47;100974.95;1739902;81;27515;-61
2022/11/25 03:06:07;;;;;;;13.25;8.58;;;;;;;2.01;90.25;100976.77;1748846;81;25872;-62
2022/11/25 03:08:34;;;;;;;14.28;9.10;;;;;;;1.98;90.16;100982.21;1783333;79;26397;-62
2022/11/25 03:11:05;;;;;;;14.65;9.20;;;;;;;1.94;90.13;100985.09;1774159;79;25838;-62
2022/11/25 03:13:32;;;;;;;14.33;8.60;;;;;;;1.91;90.06;100991.41;1756997;80;25797;-63
2022/11/25 03:16:00;;;;;;;13.60;8.10;;;;;;;1.87;89.98;100989.37;1766012;80;27391;-62
2022/11/25 03:18:27;;;;;;;14.35;8.60;;;;;;;1.86;90.00;101001.41;1757026;80;25756;-62
2022/11/25 03:20:55;;;;;;;13.35;8.43;;;;;;;1.86;90.16;100996.94;1770609;80;25731;-62
2022/11/25 03:23:24;;;;;;;12.35;8.15;;;;;;;1.84;90.03;101004.11;1757962;81;25937;-62
2022/11/25 03:25:54;;;;;;;14.30;7.95;;;;;;;1.86;90.04;101002.73;1761040;79;25509;-63
2022/11/25 03:28:21;;;;;;;12.28;7.83;;;;;;;1.83;89.95;101005.08;1756034;80;28157;-62
2022/11/25 03:30:48;;;;;;;10.85;7.22;;;;;;;1.79;90.10;101003.48;1766710;79;25761;-61
2022/11/25 03:33:15;;;;;;;12.28;7.95;;;;;;;1.75;90.01;100999.25;1769364;81;25786;-63
2022/11/25 03:35:42;;;;;;;14.28;8.40;;;;;;;1.71;90.19;101009.14;1764590;80;25797;-62
2022/11/25 03:38:09;;;;;;;12.40;7.85;;;;;;;1.72;90.27;101003.39;1770246;79;25787;-61
2022/11/25 03:40:37;;;;;;;12.03;7.97;;;;;;;1.66;90.28;101008.52;1770698;81;27489;-62
2022/11/25 03:43:04;;;;;;;11.43;7.70;;;;;;;1.63;90.54;101010.46;1761122;80;25768;-62
2022/11/25 03:45:31;;;;;;;14.60;8.05;;;;;;;1.62;90.66;101011.39;1760703;80;25708;-62
2022/11/25 03:47:59;;;;;;;12.18;8.10;;;;;;;1.59;90.80;101011.08;1759374;80;25951;-62
2022/11/25 03:50:26;;;;;;;10.40;7.35;;;;;;;1.56;90.77;101005.91;1760439;80;25785;-62
2022/11/25 03:52:54;;;;;;;11.35;7.28;;;;;;;1.53;91.02;101008.69;1761495;80;27321;-62
2022/11/25 03:55:21;;;;;;;10.70;7.20;;;;;;;1.49;91.31;101002.67;1744805;81;25684;-62
2022/11/25 03:57:50;;;;;;;13.45;7.47;;;;;;;1.47;91.41;101016.94;1755532;80;25717;-62
2022/11/25 04:00:18;;;;;;;9.60;6.87;;;;;;;1.47;91.43;101023.57;1715394;82;25824;-62
2022/11/25 04:02:47;;;;;;;12.75;7.25;;;;;;;1.46;91.53;101016.09;1759128;80;25780;-62
2022/11/25 04:05:15;;;;;;;11.90;7.30;;;;;;;1.49;91.34;101026.54;1761004;81;27941;-62
2022/11/25 04:07:43;;;;;;;11.53;7.00;;;;;;;1.50;91.37;101030.06;1760335;81;25712;-62
2022/11/25 04:10:11;;;;;;;11.57;7.80;;;;;;;1.57;91.42;101038.13;1761676;80;25782;-62
2022/11/25 04:12:47;;;;;;;10.13;6.55;;;;;;;1.58;91.21;101045.59;1729862;81;25800;-62
2022/11/25 04:15:17;;;;;;;16.10;9.40;;;;;;;1.59;90.97;101046.00;1728778;82;26032;-61
2022/11/25 04:17:48;;;;;;;21.23;11.10;;;;;;;1.58;91.06;101050.45;1741182;80;27582;-62
2022/11/25 04:20:15;;;;;;;9.65;6.35;;;;;;;1.59;91.07;101052.17;1750093;81;25729;-61
2022/11/25 04:22:46;;;;;;;11.88;6.20;;;;;;;1.58;90.98;101050.45;1751494;80;25783;-62
2022/11/25 04:25:15;;;;;;;12.45;6.67;;;;;;;1.59;90.93;101048.65;1752448;80;25833;-62
2022/11/25 04:27:43;;;;;;;9.35;6.60;;;;;;;1.62;90.86;101054.66;1743316;80;25862;-62
2022/11/25 04:30:13;;;;;;;9.83;6.37;;;;;;;1.63;90.67;101058.20;1747262;80;27505;-63
2022/11/25 04:32:40;;;;;;;8.53;5.80;;;;;;;1.64;90.75;101058.59;1759258;80;25812;-62
2022/11/25 04:35:08;;;;;;;9.93;6.50;;;;;;;1.62;90.57;101056.47;1729501;82;25784;-62
2022/11/25 04:37:37;;;;;;;10.45;7.22;;;;;;;1.59;90.81;101064.11;1750455;80;26704;-62
2022/11/25 04:40:06;;;;;;;14.00;7.60;;;;;;;1.58;90.93;101070.80;1746190;80;25809;-61
2022/11/25 04:42:35;;;;;;;9.58;6.62;;;;;;;1.58;90.94;101073.44;1718565;81;28495;-61
2022/11/25 04:45:13;;;;;;;10.43;6.12;;;;;;;1.56;90.85;101081.03;1746268;81;25804;-60
2022/11/25 04:47:44;;;;;;;10.50;6.65;;;;;;;1.59;90.88;101075.16;1748698;80;25480;-61
2022/11/25 04:50:18;;;;;;;16.02;8.38;;;;;;;1.58;90.88;101072.12;1754105;80;25842;-61
2022/11/25 04:52:56;;;;;;;20.35;10.60;;;;;;;1.54;90.95;101077.58;1744059;80;27309;-62
2022/11/25 04:55:23;;;;;;;12.35;7.30;;;;;;;1.50;91.09;101079.97;1770550;79;27871;-62
2022/11/25 04:57:50;;;;;;;18.42;10.20;;;;;;;1.52;90.94;101076.78;1783817;79;25748;-62
2022/11/25 05:00:20;;;;;;;11.60;7.35;;;;;;;1.56;90.87;101081.03;1791879;79;25695;-61
2022/11/25 05:02:48;;;;;;;8.98;5.75;;;;;;;1.55;90.82;101092.56;1769480;80;25837;-61
2022/11/25 05:05:17;;;;;;;8.73;6.03;;;;;;;1.55;90.85;101083.73;1738391;81;25818;-62
2022/11/25 05:07:45;;;;;;;14.78;9.93;;;;;;;1.58;90.88;101083.60;1739051;81;27671;-61
2022/11/25 05:10:13;;;;;;;9.25;6.50;;;;;;;1.60;90.71;101090.16;1738386;82;26307;-61
2022/11/25 05:12:45;;;;;;;10.82;6.83;;;;;;;1.57;90.67;101091.16;1739087;81;25773;-62
2022/11/25 05:15:13;;;;;;;19.20;11.05;;;;;;;1.58;90.56;101093.33;1738371;81;25902;-61
2022/11/25 05:17:42;;;;;;;10.10;6.55;;;;;;;1.61;90.67;101103.81;1735972;80;26541;-62
2022/11/25 05:20:11;;;;;;;10.48;7.12;;;;;;;1.65;90.54;101100.95;1738613;82;27486;-63
2022/11/25 05:22:37;;;;;;;10.93;6.55;;;;;;;1.65;90.22;101104.08;1753131;80;25915;-61
2022/11/25 05:25:09;;;;;;;12.43;6.62;;;;;;;1.65;90.07;101108.05;1744486;80;25785;-62
2022/11/25 05:27:38;;;;;;;8.45;5.87;;;;;;;1.64;90.15;101113.81;1738510;81;26130;-63
2022/11/25 05:30:09;;;;;;;9.70;6.03;;;;;;;1.64;90.13;101122.25;1739781;81;25522;-62
2022/11/25 05:32:36;;;;;;;8.33;6.12;;;;;;;1.66;90.54;101128.34;1739588;81;28362;-62
2022/11/25 05:35:05;;;;;;;9.60;6.12;;;;;;;1.63;90.05;101131.13;1737887;81;26074;-61
2022/11/25 05:37:32;;;;;;;8.98;5.60;;;;;;;1.62;89.90;101135.55;1744390;81;25812;-62
2022/11/25 05:40:01;;;;;;;11.20;7.35;;;;;;;1.66;90.07;101137.63;1738851;81;26530;-61
2022/11/25 05:42:41;;;;;;;15.35;8.80;;;;;;;1.69;90.32;101137.47;1739247;81;25666;-61
2022/11/25 05:45:10;;;;;;;7.33;5.53;;;;;;;1.73;90.21;101140.39;1738525;82;27537;-61
2022/11/25 05:47:37;;;;;;;7.30;5.97;;;;;;;1.73;89.77;101141.72;1766661;79;25686;-62
2022/11/25 05:50:06;;;;;;;7.72;5.80;;;;;;;1.73;89.79;101147.02;1763323;81;25814;-63
2022/11/25 05:52:33;;;;;;;6.70;5.22;;;;;;;1.72;89.37;101146.14;1741228;81;26533;-62
2022/11/25 05:55:01;;;;;;;12.47;6.55;;;;;;;1.70;89.15;101145.34;1734487;81;25745;-61
2022/11/25 05:57:28;;;;;;;10.30;6.83;;;;;;;1.72;89.09;101157.23;1738688;80;27536;-61
2022/11/25 05:59:57;;;;;;;9.23;5.97;;;;;;;1.72;89.13;101146.63;1737351;81;25812;-62
2022/11/25 06:02:26;;;;;;;10.78;7.50;;;;;;;1.74;89.02;101159.36;1735054;82;25514;-62
2022/11/25 06:04:53;;;;;;;7.87;5.00;;;;;;;1.72;88.99;101158.56;1728616;82;26001;-62
2022/11/25 06:07:20;;;;;;;7.35;5.30;;;;;;;1.71;88.94;101164.31;1735980;82;25755;-60
2022/11/25 06:09:47;;;;;;;8.35;5.30;;;;;;;1.69;88.97;101170.62;1738008;82;27125;-62
2022/11/25 06:12:13;;;;;;;6.87;5.12;;;;;;;1.67;89.07;101177.33;1732416;81;25800;-62
2022/11/25 06:14:42;;;;;;;10.40;6.10;;;;;;;1.69;89.17;101179.45;1695838;84;25730;-63
2022/11/25 06:17:08;;;;;;;14.53;7.87;;;;;;;1.68;89.20;101180.38;1706363;81;25801;-62
2022/11/25 06:19:37;;;;;;;12.55;8.03;;;;;;;1.70;89.14;101186.45;1706079;81;25813;-61
2022/11/25 06:22:04;;;;;;;16.52;8.90;;;;;;;1.70;89.16;101192.24;1730372;81;27477;-62
2022/11/25 06:24:32;;;;;;;11.55;7.47;;;;;;;1.71;89.15;101197.47;1728474;81;25733;-61
2022/11/25 06:27:00;;;;;;;9.68;6.12;;;;;;;1.78;89.27;101195.41;1730168;82;25747;-62
2022/11/25 06:29:27;;;;;;;10.70;6.55;;;;;;;1.77;88.84;101208.27;1738149;82;26505;-62
2022/11/25 06:31:54;;;;;;;8.08;5.83;;;;;;;1.73;88.79;101208.03;1738548;81;25788;-61
2022/11/25 06:34:32;;;;;;;8.93;5.83;;;;;;;1.73;88.97;101212.01;1713518;82;27486;-62
2022/11/25 06:37:00;;;;;;;16.65;7.67;;;;;;;1.71;88.86;101209.88;1737978;81;25438;-61
2022/11/25 06:39:26;;;;;;;9.40;5.12;;;;;;;1.73;88.84;101213.33;1738810;82;25796;-61
2022/11/25 06:41:53;;;;;;;11.18;6.50;;;;;;;1.79;88.91;101209.07;1736226;81;25765;-61
2022/11/25 06:44:20;;;;;;;8.90;5.83;;;;;;;1.80;88.68;101207.27;1726399;83;25807;-62
2022/11/25 06:46:46;;;;;;;5.87;4.80;;;;;;;1.81;88.63;101214.30;1733279;81;27546;-61
2022/11/25 06:49:13;;;;;;;9.48;5.97;;;;;;;1.83;88.45;101203.16;1737983;81;25733;-61
2022/11/25 06:51:39;;;;;;;8.10;5.55;;;;;;;1.83;88.26;101215.09;1729446;81;25697;-62
2022/11/25 06:54:07;;;;;;;10.78;5.65;;;;;;;1.83;88.17;101218.63;1728715;81;25828;-61
2022/11/25 06:56:34;;;;;;;7.42;5.08;;;;;;;1.85;88.21;101220.72;1756553;81;25714;-62
2022/11/25 06:59:02;;;;;;;10.08;5.78;;;;;;;1.87;87.99;101222.00;1769594;80;27657;-62
2022/11/25 07:01:30;;;;;;;7.58;5.60;;;;;;;1.88;87.87;101223.25;1744470;80;25684;-63
2022/11/25 07:04:04;;;;;;;9.90;5.55;;;;;;;1.91;87.74;101233.34;1753004;80;25747;-62
2022/11/25 07:06:32;;;;;;;;;;;;;;;1.91;87.40;101216.09;1747702;80;26483;-61
2022/11/25 07:08:59;;;;;;;7.50;5.22;;;;;;;1.95;87.68;101228.27;1759250;80;25883;-61
2022/11/25 07:11:31;;;;;;;6.17;4.83;;;;;;;1.99;87.73;101224.08;1748293;81;27581;-61
2022/11/25 07:14:02;;;;;;;7.85;4.65;;;;;;;2.02;87.40;101222.63;1728385;81;25772;-61
2022/11/25 07:16:30;;;;;;;6.37;4.97;;;;;;;2.08;87.40;101224.14;1735768;80;25789;-62
2022/11/25 07:19:00;;;;;;;6.35;4.90;;;;;;;2.12;86.86;101222.20;1756529;80;26704;-61
2022/11/25 07:21:29;;;;;;;5.25;4.33;;;;;;;2.13;86.66;101224.78;1743709;81;25725;-61
2022/11/25 07:23:59;;;;;;;11.60;5.58;;;;;;;2.15;86.33;101221.59;1738101;80;27465;-62
2022/11/25 07:26:30;;;;;;;11.65;6.35;;;;;;;2.16;86.12;101226.42;1708900;81;25686;-61
2022/11/25 07:29:01;;;;;;;13.78;5.62;;;;;;;2.15;86.03;101230.89;1757172;81;25457;-61
2022/11/25 07:31:32;;;;;;;11.80;7.53;;;;;;;2.12;85.87;101233.67;1758751;80;26471;-62
2022/11/25 07:34:04;;;;;;;7.08;5.20;;;;;;;2.16;85.96;101235.72;1751127;81;25503;-62
2022/11/25 07:36:33;;;;;;;7.72;4.95;;;;;;;2.18;86.18;101244.48;1730661;80;27464;-62
2022/11/25 07:39:05;;;;;;;7.37;5.28;;;;;;;2.17;85.71;101244.95;1758772;81;25807;-61
2022/11/25 07:41:32;;;;;;;9.10;5.87;;;;;;;2.17;85.72;101243.63;1758592;81;25803;-61
2022/11/25 07:44:03;;;;;;;13.48;6.87;;;;;;;2.16;85.70;101243.68;1758451;80;25771;-62
2022/11/25 07:46:34;;;;;;;18.23;8.43;;;;;;;2.21;85.87;101243.02;1743282;80;25705;-61
2022/11/25 07:49:06;;;;;;;22.60;10.63;;;;;;;2.20;85.60;101249.26;1755809;80;26944;-63
2022/11/25 07:51:37;;;;;;;24.20;10.40;;;;;;;2.18;85.81;101253.77;1757208;81;25719;-62
2022/11/25 07:54:08;;;;;;;20.57;9.70;;;;;;;2.21;85.92;101248.33;1733863;80;25775;-62
2022/11/25 07:56:38;;;;;;;8.58;5.90;;;;;;;2.21;85.82;101248.78;1750958;81;25734;-61
2022/11/25 07:59:06;;;;;;;16.60;8.60;;;;;;;2.16;85.37;101253.85;1753853;80;25836;-60
2022/11/25 08:01:33;;;;;;;16.50;9.03;;;;;;;2.17;85.70;101262.21;1758608;80;28555;-61
2022/11/25 08:04:00;;;;;;;16.70;9.25;;;;;;;2.21;85.57;101268.69;1758731;80;25775;-61
2022/11/25 08:06:28;;;;;;;19.10;9.75;;;;;;;2.20;85.52;101266.52;1737585;81;25746;-61
2022/11/25 08:08:57;;;;;;;15.98;7.22;;;;;;;2.25;85.73;101275.59;1709989;83;25882;-61
2022/11/25 08:11:29;;;;;;;12.18;6.85;;;;;;;2.27;85.72;101275.06;1732999;80;25759;-61
2022/11/25 08:13:57;;;;;;;11.05;6.90;;;;;;;2.33;85.52;101272.13;1759876;80;28168;-61
2022/11/25 08:16:29;;;;;;;9.33;6.50;;;;;;;2.35;85.18;101278.23;1749265;80;25775;-61
2022/11/25 08:19:03;;;;;;;14.18;7.83;;;;;;;2.34;84.69;101277.83;1733560;81;26293;-61
2022/11/25 08:21:29;;;;;;;10.63;7.15;;;;;;;2.28;84.75;101273.66;1756965;80;25767;-61
2022/11/25 08:23:57;;;;;;;10.48;5.95;;;;;;;2.27;85.24;101289.19;1737501;81;25750;-61
2022/11/25 08:26:31;;;;;;;8.48;5.70;;;;;;;2.27;85.42;101284.36;1743040;80;27491;-62
2022/11/25 08:29:00;;;;;;;7.65;5.08;;;;;;;2.31;85.39;101280.61;1758403;81;25803;-62
2022/11/25 08:31:32;;;;;;;7.90;5.10;;;;;;;2.42;85.55;101282.80;1765872;80;25824;-61
2022/11/25 08:34:00;;;;;;;8.45;5.50;;;;;;;2.46;84.98;101281.70;1757924;81;25901;-61
2022/11/25 08:36:30;;;;;;;8.95;6.17;;;;;;;2.52;84.96;101288.53;1754622;80;25784;-61
2022/11/25 08:39:00;;;;;;;12.18;6.50;;;;;;;2.52;84.53;101285.88;1735235;81;29690;-63
2022/11/25 08:41:32;;;;;;;10.18;6.55;;;;;;;2.47;84.19;101284.28;1734286;81;25804;-62
2022/11/25 08:44:02;;;;;;;8.55;5.65;;;;;;;2.44;83.97;101288.42;1723254;81;25810;-62
2022/11/25 08:46:33;;;;;;;7.72;5.30;;;;;;;2.49;84.42;101289.55;1704375;82;26407;-61
2022/11/25 08:49:00;;;;;;;12.80;6.03;;;;;;;2.59;84.66;101296.16;1746740;80;25706;-63
2022/11/25 08:51:30;;;;;;;17.30;8.75;;;;;;;2.71;84.74;101297.81;1750531;81;27473;-62
2022/11/25 08:53:57;;;;;;;10.95;6.55;;;;;;;2.74;83.33;101301.66;1746953;79;25981;-62
2022/11/25 08:56:26;;;;;;;14.75;8.13;;;;;;;2.77;84.08;101298.88;1802023;79;25504;-61
2022/11/25 08:58:54;;;;;;;18.27;10.93;;;;;;;2.75;83.49;101294.94;1802559;78;25786;-62
2022/11/25 09:01:23;;;;;;;10.60;5.80;;;;;;;2.79;83.54;101303.63;1802452;78;26011;-60
2022/11/25 09:03:54;;;;;;;10.05;6.05;;;;;;;2.85;83.45;101302.03;1796108;79;27619;-61
2022/11/25 09:06:22;;;;;;;9.90;6.25;;;;;;;2.87;83.24;101301.46;1710202;80;25693;-61
2022/11/25 09:08:49;;;;;;;11.03;6.72;;;;;;;2.87;82.81;101297.48;1761818;80;25738;-61
2022/11/25 09:11:16;;;;;;;12.53;6.53;;;;;;;2.87;82.45;101299.28;1737835;80;26311;-61
2022/11/25 09:13:43;;;;;;;9.10;5.92;;;;;;;2.82;82.33;101300.83;1759945;80;25812;-61
2022/11/25 09:16:10;;;;;;;9.48;5.83;;;;;;;2.89;82.95;101302.73;1760933;80;27518;-61
2022/11/25 09:18:38;;;;;;;8.05;5.95;;;;;;;2.94;82.60;101297.60;1724870;80;26286;-62
2022/11/25 09:21:12;;;;;;;9.08;6.28;;;;;;;2.94;82.51;101311.34;1782053;79;25852;-62
2022/11/25 09:23:39;;;;;;;8.78;6.15;;;;;;;2.98;82.26;101299.16;1783640;79;26655;-59
2022/11/25 09:26:09;;;;;;;10.05;6.17;;;;;;;2.98;82.04;101303.63;1782338;79;25940;-62
2022/11/25 09:28:36;;;;;;;12.07;6.15;;;;;;;2.97;81.83;101305.41;1793660;79;27460;-62
2022/11/25 09:31:08;;;;;;;9.98;6.95;;;;;;;3.05;82.32;101296.22;1787572;79;25857;-62
2022/11/25 09:33:35;;;;;;;11.80;6.30;;;;;;;3.04;81.61;101304.65;1779658;79;25826;-62
2022/11/25 09:36:05;;;;;;;11.65;6.67;;;;;;;3.07;81.59;101293.88;1790495;79;27986;-61
2022/11/25 09:38:32;;;;;;;12.70;6.85;;;;;;;3.11;81.54;101297.24;1797072;79;25800;-60
2022/11/25 09:41:10;;;;;;;15.80;8.25;;;;;;;3.07;80.88;101295.20;1785216;79;27480;-60
2022/11/25 09:47:06;;;;;;;13.55;7.35;;;;;;;3.08;81.14;101290.73;1784895;79;25669;-62
2022/11/25 09:49:44;;;;;;;10.78;6.20;;;;;;;3.06;80.98;101297.92;1796524;79;28009;-61
2022/11/25 09:52:38;;;;;;;10.53;7.58;;;;;;;3.14;81.29;101293.09;1774026;79;25832;-61
2022/11/25 09:55:14;;;;;;;11.75;5.85;;;;;;;3.27;81.30;101292.04;1780916;79;27588;-62
2022/11/25 09:58:19;;;;;;;8.90;5.92;;;;;;;3.36;80.42;101294.70;1769206;80;25707;-62
2022/11/25 10:00:49;;;;;;;15.08;5.60;;;;;;;3.39;80.63;101290.08;1735781;80;25777;-60
2022/11/25 10:03:46;;;;;;;9.05;6.55;;;;;;;3.36;80.12;101298.68;1750490;80;26465;-62
2022/11/25 10:06:24;;;;;;;10.32;6.08;;;;;;;3.39;79.93;101302.05;1758376;80;25743;-61
2022/11/25 10:09:02;;;;;;;10.10;6.00;;;;;;;3.34;79.94;101307.20;1767015;79;27587;-61
2022/11/25 10:11:49;;;;;;;10.82;6.97;;;;;;;3.34;79.51;101301.43;1754716;80;25741;-61
2022/11/25 10:14:43;;;;;;;10.55;6.45;;;;;;;3.34;79.35;101304.54;1770126;80;25677;-60
2022/11/25 10:17:21;;;;;;;9.73;6.00;;;;;;;3.34;79.82;101302.76;1730654;80;26081;-61
2022/11/25 10:20:15;;;;;;;10.18;6.53;;;;;;;3.40;79.84;101306.44;1726518;80;25741;-61
2022/11/25 10:22:46;;;;;;;12.43;6.22;;;;;;;3.40;79.32;101304.26;1727386;80;27543;-61
2022/11/25 10:25:19;;;;;;;9.35;6.10;;;;;;;3.45;79.45;101306.20;1731653;81;25910;-61
2022/11/25 10:27:59;;;;;;;12.65;5.12;;;;;;;3.45;78.95;101303.55;1713284;82;25958;-61
2022/11/25 10:30:40;;;;;;;10.18;5.45;;;;;;;3.38;78.23;101307.45;1724270;81;26645;-61
2022/11/25 10:33:31;;;;;;;12.33;6.75;;;;;;;3.39;78.78;101309.18;1730361;81;27218;-61
2022/11/25 10:36:06;;;;;;;9.70;5.80;;;;;;;3.39;78.78;101306.03;1715110;82;28753;-61
2022/11/25 10:38:41;;;;;;;8.83;5.80;;;;;;;3.36;78.54;101314.64;1735109;81;25793;-61
2022/11/25 10:41:12;;;;;;;7.67;5.60;;;;;;;3.34;78.33;101309.41;1704853;81;25778;-61
2022/11/25 10:43:42;;;;;;;9.30;6.22;;;;;;;3.37;78.64;101307.91;1728910;81;25838;-61
2022/11/25 10:46:40;;;;;;;8.80;5.70;;;;;;;3.39;78.62;101318.48;1730504;81;25739;-61
2022/11/25 10:49:15;;;;;;;8.83;5.67;;;;;;;3.47;78.61;101322.08;1755525;80;28362;-61
2022/11/25 10:51:48;;;;;;;9.00;6.05;;;;;;;3.41;78.34;101308.61;1742198;80;25746;-61
2022/11/25 10:54:25;;;;;;;6.77;5.47;;;;;;;3.59;78.15;101330.78;1765361;79;25767;-61
2022/11/25 10:56:57;;;;;;;15.38;8.90;;;;;;;3.60;78.02;101326.70;1796621;79;26571;-61
2022/11/25 10:59:33;;;;;;;13.40;8.15;;;;;;;3.59;78.14;101325.46;1803028;79;25941;-62
2022/11/25 11:02:18;;;;;;;12.28;7.83;;;;;;;3.58;78.00;101331.72;1799173;79;27508;-61
2022/11/25 11:05:02;;;;;;;14.55;7.80;;;;;;;3.56;78.11;101332.25;1788007;78;26004;-61
2022/11/25 11:07:33;;;;;;;14.40;6.58;;;;;;;3.55;78.28;101334.52;1764538;79;25720;-61
2022/11/25 11:10:17;;;;;;;16.87;9.83;;;;;;;3.62;78.64;101337.29;1769232;79;27893;-61
2022/11/25 11:13:01;;;;;;;17.60;9.65;;;;;;;3.62;77.94;101334.63;1782213;79;25498;-61
2022/11/25 11:15:41;;;;;;;18.60;9.25;;;;;;;3.47;77.60;101338.91;1792016;79;27454;-62
2022/11/25 11:18:38;;;;;;;17.92;9.90;;;;;;;3.35;77.62;101340.39;1768565;79;25847;-61
2022/11/25 11:21:09;;;;;;;16.57;9.83;;;;;;;3.31;77.81;101340.12;1782262;79;25699;-61
2022/11/25 11:23:52;;;;;;;15.08;8.98;;;;;;;3.34;78.21;101344.43;1764614;79;25808;-61
2022/11/25 11:26:29;;;;;;;15.28;8.98;;;;;;;3.39;78.31;101349.92;1736743;80;25842;-61
2022/11/25 11:29:07;;;;;;;17.07;9.10;;;;;;;3.37;78.11;101345.63;1761624;80;27614;-60
2022/11/25 11:31:55;;;;;;;14.25;7.92;;;;;;;3.40;77.96;101343.67;1782592;79;25805;-60
2022/11/25 11:34:39;;;;;;;12.07;8.18;;;;;;;3.48;78.17;101353.06;1795521;79;25752;-61
2022/11/25 11:37:36;;;;;;;;;;;;;;;3.42;77.59;101352.89;1773733;79;29254;-61
2022/11/25 11:40:38;;;;;;;13.68;7.83;;;;;;;3.41;77.81;101353.83;1796258;79;25746;-62
2022/11/25 11:43:25;;;;;;;12.90;8.30;;;;;;;3.50;77.99;101349.86;1796872;79;27477;-61
2022/11/25 11:46:15;;;;;;;14.30;8.35;;;;;;;3.57;77.83;101352.61;1791840;79;25794;-61
2022/11/25 11:49:25;;;;;;;17.20;9.55;;;;;;;3.62;77.93;101359.03;1775791;80;25713;-61
2022/11/25 11:52:24;;;;;;;19.95;9.80;;;;;;;3.59;77.45;101357.39;1772146;79;25857;-61
2022/11/25 11:55:22;;;;;;;20.70;10.82;;;;;;;3.51;77.36;101364.89;1754625;79;25831;-61